createdAt,value
2022-10-01T00:00:15.355Z,18.20
2022-10-01T00:02:42.974Z,18.20
2022-10-01T00:05:13.181Z,18.20
2022-10-01T00:07:43.584Z,18.20
2022-10-01T00:10:11.713Z,18.20
2022-10-01T00:12:39.979Z,18.20
2022-10-01T00:15:13.304Z,18.20
2022-10-01T00:17:41.028Z,18.20
2022-10-01T00:20:14.195Z,18.20
2022-10-01T00:22:41.267Z,18.10
2022-10-01T00:25:08.743Z,18.20
2022-10-01T00:27:36.663Z,18.10
2022-10-01T00:30:07.462Z,18.20
2022-10-01T00:32:34.077Z,18.10
2022-10-01T00:35:00.908Z,18.10
2022-10-01T00:37:27.594Z,18.10
2022-10-01T00:39:54.647Z,18.10
2022-10-01T00:42:24.131Z,18.10
2022-10-01T00:44:51.463Z,18.10
2022-10-01T00:47:40.912Z,18.00
2022-10-01T00:50:16.295Z,18.00
2022-10-01T00:52:47.065Z,18.00
2022-10-01T00:55:20.894Z,17.90
2022-10-01T00:57:47.681Z,18.00
2022-10-01T01:00:14.799Z,17.90
2022-10-01T01:02:42.221Z,17.90
2022-10-01T01:05:12.390Z,17.90
2022-10-01T01:07:45.027Z,17.90
2022-10-01T01:10:14.760Z,17.90
2022-10-01T01:13:12.685Z,17.90
2022-10-01T01:16:28.014Z,17.90
2022-10-01T01:19:13.126Z,17.90
2022-10-01T01:21:45.463Z,17.80
2022-10-01T01:24:21.134Z,17.90
2022-10-01T01:26:58.734Z,17.90
2022-10-01T01:29:29.110Z,17.90
2022-10-01T01:32:01.426Z,17.90
2022-10-01T01:34:30.155Z,17.90
2022-10-01T01:37:04.703Z,17.90
2022-10-01T01:39:33.268Z,17.90
2022-10-01T01:42:06.452Z,17.80
2022-10-01T01:44:38.489Z,17.80
2022-10-01T01:47:07.536Z,17.80
2022-10-01T01:49:34.394Z,17.80
2022-10-01T01:52:13.796Z,17.80
2022-10-01T01:54:41.402Z,17.80
2022-10-01T01:57:08.918Z,17.80
2022-10-01T01:59:36.437Z,17.80
2022-10-01T02:02:04.598Z,17.80
2022-10-01T02:04:45.964Z,17.90
2022-10-01T02:07:45.827Z,17.90
2022-10-01T02:10:27.730Z,17.90
2022-10-01T02:13:09.978Z,17.90
2022-10-01T02:15:48.518Z,17.90
2022-10-01T02:18:27.101Z,17.90
2022-10-01T02:21:09.395Z,17.90
2022-10-01T02:23:47.902Z,18.00
2022-10-01T02:26:21.465Z,18.00
2022-10-01T02:28:51.372Z,18.10
2022-10-01T02:31:20.586Z,18.00
2022-10-01T02:33:48.311Z,18.00
2022-10-01T02:36:18.219Z,18.10
2022-10-01T02:38:46.115Z,18.10
2022-10-01T02:41:17.410Z,18.10
2022-10-01T02:44:06.089Z,18.00
2022-10-01T02:46:46.951Z,18.10
2022-10-01T02:49:14.950Z,18.10
2022-10-01T02:51:54.479Z,18.10
2022-10-01T02:54:38.427Z,18.10
2022-10-01T02:57:23.296Z,18.10
2022-10-01T02:59:57.693Z,18.10
2022-10-01T03:02:27.557Z,18.10
2022-10-01T03:04:55.615Z,18.00
2022-10-01T03:07:22.715Z,18.00
2022-10-01T03:09:50.895Z,18.00
2022-10-01T03:12:18.495Z,18.00
2022-10-01T03:14:47.536Z,18.00
2022-10-01T03:17:15.102Z,18.00
2022-10-01T03:19:42.624Z,18.00
2022-10-01T03:22:11.590Z,18.00
2022-10-01T03:24:40.282Z,18.10
2022-10-01T03:27:06.896Z,18.10
2022-10-01T03:29:33.592Z,18.20
2022-10-01T03:32:00.296Z,18.10
2022-10-01T03:34:27.672Z,18.10
2022-10-01T03:36:54.452Z,18.20
2022-10-01T03:39:21.330Z,18.10
2022-10-01T03:41:47.948Z,18.10
2022-10-01T03:44:14.688Z,18.20
2022-10-01T03:46:41.374Z,18.20
2022-10-01T03:49:08.164Z,18.20
2022-10-01T03:51:37.491Z,18.30
2022-10-01T03:54:06.166Z,18.40
2022-10-01T03:56:33.571Z,18.30
2022-10-01T03:59:00.352Z,18.20
2022-10-01T04:01:27.271Z,18.20
2022-10-01T04:03:54.726Z,18.30
2022-10-01T04:06:21.413Z,18.30
2022-10-01T04:08:48.229Z,18.40
2022-10-01T04:11:15.027Z,18.50
2022-10-01T04:13:41.700Z,18.50
2022-10-01T04:16:08.582Z,18.50
2022-10-01T04:18:35.660Z,18.50
2022-10-01T04:21:02.536Z,18.50
2022-10-01T04:23:29.204Z,18.60
2022-10-01T04:26:00.553Z,18.60
2022-10-01T04:28:27.204Z,18.60
2022-10-01T04:31:13.885Z,18.60
2022-10-01T04:33:41.353Z,18.60
2022-10-01T04:36:08.395Z,18.70
2022-10-01T04:38:35.432Z,18.70
2022-10-01T04:41:02.008Z,18.70
2022-10-01T04:43:28.635Z,18.70
2022-10-01T04:45:55.492Z,18.70
2022-10-01T04:48:22.089Z,18.70
2022-10-01T04:50:48.652Z,18.80
2022-10-01T04:53:15.562Z,18.80
2022-10-01T04:55:42.871Z,18.80
2022-10-01T04:58:09.866Z,18.80
2022-10-01T05:00:36.537Z,18.90
2022-10-01T05:03:03.152Z,18.90
2022-10-01T05:05:32.852Z,18.90
2022-10-01T05:07:59.554Z,18.90
2022-10-01T05:10:26.208Z,19.00
2022-10-01T05:12:53.264Z,19.00
2022-10-01T05:15:20.094Z,19.00
2022-10-01T05:17:47.288Z,19.20
2022-10-01T05:20:19.891Z,19.20
2022-10-01T05:22:48.923Z,19.20
2022-10-01T05:25:17.098Z,19.10
2022-10-01T05:27:43.949Z,19.20
2022-10-01T05:30:12.655Z,19.30
2022-10-01T05:32:39.864Z,19.30
2022-10-01T05:35:08.261Z,19.20
2022-10-01T05:37:35.626Z,19.20
2022-10-01T05:40:02.810Z,19.20
2022-10-01T05:42:29.658Z,19.20
2022-10-01T05:44:56.996Z,19.20
2022-10-01T05:47:23.815Z,19.20
2022-10-01T05:49:50.464Z,19.20
2022-10-01T05:52:17.079Z,19.20
2022-10-01T05:54:43.852Z,19.20
2022-10-01T05:57:11.164Z,19.20
2022-10-01T05:59:38.386Z,19.20
2022-10-01T06:02:05.124Z,19.20
2022-10-01T06:04:31.997Z,19.10
2022-10-01T06:06:59.046Z,19.10
2022-10-01T06:09:26.144Z,19.10
2022-10-01T06:11:52.792Z,19.20
2022-10-01T06:14:19.665Z,19.10
2022-10-01T06:16:47.696Z,19.10
2022-10-01T06:19:14.598Z,19.10
2022-10-01T06:21:41.376Z,19.10
2022-10-01T06:24:08.755Z,19.20
2022-10-01T06:26:36.854Z,19.10
2022-10-01T06:29:03.633Z,19.20
2022-10-01T06:31:30.747Z,19.20
2022-10-01T06:33:57.750Z,19.20
2022-10-01T06:36:24.735Z,19.20
2022-10-01T06:38:51.835Z,19.20
2022-10-01T06:41:18.807Z,19.20
2022-10-01T06:43:45.467Z,19.20
2022-10-01T06:46:12.141Z,19.30
2022-10-01T06:48:39.262Z,19.30
2022-10-01T06:51:06.043Z,19.30
2022-10-01T06:53:32.878Z,19.40
2022-10-01T06:56:07.996Z,19.40
2022-10-01T06:58:34.853Z,19.40
2022-10-01T07:01:03.860Z,19.60
2022-10-01T07:03:31.395Z,19.60
2022-10-01T07:06:04.193Z,19.70
2022-10-01T07:08:30.804Z,19.80
2022-10-01T07:11:06.554Z,19.80
2022-10-01T07:13:33.184Z,20.00
2022-10-01T07:16:02.102Z,20.00
2022-10-01T07:18:28.769Z,20.10
2022-10-01T07:20:58.427Z,20.20
2022-10-01T07:23:25.251Z,20.30
2022-10-01T07:25:52.045Z,20.40
2022-10-01T07:28:23.826Z,20.50
2022-10-01T07:31:07.220Z,20.60
2022-10-01T07:33:34.281Z,20.60
2022-10-01T07:36:03.066Z,20.60
2022-10-01T07:38:29.847Z,20.60
2022-10-01T07:40:56.851Z,20.80
2022-10-01T07:43:23.447Z,20.80
2022-10-01T07:45:52.308Z,20.80
2022-10-01T07:48:19.257Z,20.80
2022-10-01T07:50:45.940Z,20.90
2022-10-01T07:53:13.570Z,20.90
2022-10-01T07:55:40.309Z,21.00
2022-10-01T07:58:07.138Z,21.00
2022-10-01T08:00:34.411Z,21.10
2022-10-01T08:03:01.158Z,21.20
2022-10-01T08:05:31.912Z,21.20
2022-10-01T08:08:06.920Z,21.20
2022-10-01T08:10:36.576Z,21.40
2022-10-01T08:13:16.199Z,21.50
2022-10-01T08:15:44.633Z,21.60
2022-10-01T08:18:11.803Z,21.60
2022-10-01T08:20:41.805Z,21.60
2022-10-01T08:23:14.688Z,21.60
2022-10-01T08:25:42.635Z,21.40
2022-10-01T08:28:11.349Z,21.30
2022-10-01T08:30:39.720Z,21.30
2022-10-01T08:33:07.599Z,21.30
2022-10-01T08:35:34.318Z,21.20
2022-10-01T08:38:06.629Z,21.20
2022-10-01T08:40:38.105Z,21.20
2022-10-01T08:43:07.544Z,21.20
2022-10-01T08:45:51.450Z,21.20
2022-10-01T08:48:36.648Z,21.20
2022-10-01T08:51:33.139Z,21.30
2022-10-01T08:54:13.975Z,21.20
2022-10-01T08:56:46.453Z,21.30
2022-10-01T08:59:30.022Z,21.30
2022-10-01T09:02:00.057Z,21.30
2022-10-01T09:04:27.865Z,21.30
2022-10-01T09:07:07.232Z,21.20
2022-10-01T09:09:46.887Z,21.10
2022-10-01T09:12:23.379Z,21.10
2022-10-01T09:14:57.447Z,21.10
2022-10-01T09:17:46.583Z,21.20
2022-10-01T09:20:29.072Z,21.30
2022-10-01T09:23:17.886Z,21.30
2022-10-01T09:25:50.351Z,21.50
2022-10-01T09:28:22.677Z,21.60
2022-10-01T09:30:55.713Z,21.70
2022-10-01T09:33:27.189Z,21.90
2022-10-01T09:36:10.910Z,22.00
2022-10-01T09:38:48.335Z,22.30
2022-10-01T09:41:14.954Z,22.40
2022-10-01T09:43:43.674Z,22.50
2022-10-01T09:46:15.050Z,22.50
2022-10-01T09:48:59.254Z,22.50
2022-10-01T09:51:35.822Z,22.40
2022-10-01T09:54:17.122Z,22.30
2022-10-01T09:56:50.912Z,22.20
2022-10-01T09:59:22.609Z,22.20
2022-10-01T10:01:55.895Z,22.30
2022-10-01T10:04:23.744Z,22.40
2022-10-01T10:07:02.456Z,22.60
2022-10-01T10:09:34.935Z,22.70
2022-10-01T10:12:02.400Z,22.60
2022-10-01T10:14:35.079Z,22.60
2022-10-01T10:17:06.880Z,22.50
2022-10-01T10:19:33.956Z,22.30
2022-10-01T10:22:23.165Z,22.10
2022-10-01T10:24:50.254Z,22.10
2022-10-01T10:27:21.879Z,22.30
2022-10-01T10:29:48.830Z,22.40
2022-10-01T10:32:25.709Z,22.60
2022-10-01T10:34:57.023Z,22.90
2022-10-01T10:37:31.102Z,23.00
2022-10-01T10:39:58.804Z,23.10
2022-10-01T10:42:25.893Z,23.10
2022-10-01T10:44:55.729Z,23.10
2022-10-01T10:47:24.451Z,23.00
2022-10-01T10:50:03.818Z,22.90
2022-10-01T10:52:36.311Z,23.00
2022-10-01T10:55:25.373Z,23.00
2022-10-01T10:57:57.610Z,23.20
2022-10-01T11:00:26.333Z,23.40
2022-10-01T11:02:59.375Z,23.70
2022-10-01T11:05:35.274Z,23.90
2022-10-01T11:08:05.465Z,24.20
2022-10-01T11:10:56.506Z,24.30
2022-10-01T11:13:43.863Z,24.30
2022-10-01T11:16:16.888Z,24.20
2022-10-01T11:18:55.942Z,24.10
2022-10-01T11:21:41.911Z,23.90
2022-10-01T11:24:24.823Z,23.80
2022-10-01T11:27:07.450Z,23.80
2022-10-01T11:29:45.992Z,24.00
2022-10-01T11:32:21.463Z,24.20
2022-10-01T11:35:05.032Z,24.60
2022-10-01T11:37:59.747Z,24.90
2022-10-01T11:40:37.039Z,25.00
2022-10-01T11:43:27.279Z,24.90
2022-10-01T11:46:03.711Z,24.60
2022-10-01T11:48:39.240Z,24.40
2022-10-01T11:51:12.599Z,24.20
2022-10-01T11:53:45.475Z,24.00
2022-10-01T11:56:39.739Z,23.70
2022-10-01T11:59:19.167Z,23.40
2022-10-01T12:01:47.942Z,23.20
2022-10-01T12:04:41.916Z,23.10
2022-10-01T12:07:49.801Z,23.40
2022-10-01T12:11:06.906Z,23.80
2022-10-01T12:13:40.484Z,24.00
2022-10-01T12:16:18.602Z,24.30
2022-10-01T12:18:56.872Z,24.40
2022-10-01T12:21:29.750Z,24.70
2022-10-01T12:24:14.777Z,24.90
2022-10-01T12:26:41.380Z,25.00
2022-10-01T12:29:54.524Z,24.90
2022-10-01T12:32:47.028Z,24.60
2022-10-01T12:35:29.684Z,24.30
2022-10-01T12:38:15.052Z,24.00
2022-10-01T12:40:51.289Z,23.90
2022-10-01T12:43:53.394Z,24.00
2022-10-01T12:46:40.104Z,24.60
2022-10-01T12:49:31.862Z,25.20
2022-10-01T12:52:12.099Z,26.10
2022-10-01T12:54:48.884Z,26.60
2022-10-01T12:57:46.988Z,26.90
2022-10-01T13:00:25.163Z,27.20
2022-10-01T13:03:19.063Z,27.30
2022-10-01T13:06:04.979Z,26.90
2022-10-01T13:08:52.459Z,26.50
2022-10-01T13:11:46.710Z,26.20
2022-10-01T13:14:16.727Z,26.20
2022-10-01T13:17:06.301Z,26.50
2022-10-01T13:19:52.957Z,26.90
2022-10-01T13:22:42.937Z,27.10
2022-10-01T13:25:17.709Z,27.00
2022-10-01T13:27:51.684Z,26.80
2022-10-01T13:30:23.728Z,26.30
2022-10-01T13:32:52.041Z,26.00
2022-10-01T13:35:39.606Z,25.70
2022-10-01T13:38:17.351Z,25.50
2022-10-01T13:40:44.728Z,25.80
2022-10-01T13:43:23.318Z,26.20
2022-10-01T13:45:55.017Z,26.70
2022-10-01T13:48:33.261Z,27.30
2022-10-01T13:51:07.105Z,27.90
2022-10-01T13:53:41.621Z,28.00
2022-10-01T13:56:12.793Z,28.00
2022-10-01T13:58:42.763Z,27.70
2022-10-01T14:01:24.219Z,27.70
2022-10-01T14:04:36.375Z,27.70
2022-10-01T14:07:17.744Z,27.90
2022-10-01T14:09:54.248Z,28.20
2022-10-01T14:12:49.207Z,28.50
2022-10-01T14:16:02.623Z,28.70
2022-10-01T14:18:42.888Z,28.90
2022-10-01T14:21:30.997Z,29.30
2022-10-01T14:24:35.265Z,29.80
2022-10-01T14:27:13.795Z,30.20
2022-10-01T14:30:03.298Z,30.60
2022-10-01T14:32:50.856Z,30.80
2022-10-01T14:35:29.499Z,30.80
2022-10-01T14:38:01.927Z,30.90
2022-10-01T14:40:41.401Z,30.60
2022-10-01T14:43:39.344Z,30.30
2022-10-01T14:46:13.401Z,30.20
2022-10-01T14:48:40.630Z,30.40
2022-10-01T14:51:25.671Z,30.60
2022-10-01T14:53:54.523Z,30.80
2022-10-01T14:56:22.813Z,30.40
2022-10-01T14:58:55.792Z,30.30
2022-10-01T15:01:24.243Z,30.00
2022-10-01T15:03:52.012Z,29.50
2022-10-01T15:06:27.571Z,29.30
2022-10-01T15:08:56.106Z,28.90
2022-10-01T15:11:25.788Z,28.40
2022-10-01T15:13:56.693Z,27.80
2022-10-01T15:16:25.591Z,27.20
2022-10-01T15:18:58.066Z,26.70
2022-10-01T15:21:35.476Z,26.30
2022-10-01T15:24:04.619Z,25.80
2022-10-01T15:26:34.804Z,25.40
2022-10-01T15:29:12.941Z,25.20
2022-10-01T15:31:41.176Z,25.10
2022-10-01T15:34:12.731Z,25.50
2022-10-01T15:36:41.107Z,25.90
2022-10-01T15:39:26.870Z,26.30
2022-10-01T15:41:54.967Z,26.60
2022-10-01T15:44:46.333Z,26.80
2022-10-01T15:47:16.662Z,26.90
2022-10-01T15:50:09.857Z,26.80
2022-10-01T15:52:51.931Z,26.60
2022-10-01T15:55:18.685Z,26.30
2022-10-01T15:57:45.477Z,26.10
2022-10-01T16:00:31.314Z,26.10
2022-10-01T16:02:58.627Z,26.20
2022-10-01T16:05:38.192Z,26.40
2022-10-01T16:08:05.667Z,26.70
2022-10-01T16:10:40.615Z,26.80
2022-10-01T16:13:39.246Z,26.80
2022-10-01T16:16:29.332Z,26.50
2022-10-01T16:19:17.864Z,26.20
2022-10-01T16:22:04.593Z,25.90
2022-10-01T16:24:42.425Z,25.50
2022-10-01T16:27:15.040Z,25.10
2022-10-01T16:29:43.362Z,24.90
2022-10-01T16:32:14.780Z,24.60
2022-10-01T16:34:41.604Z,24.40
2022-10-01T16:37:09.260Z,24.20
2022-10-01T16:39:36.788Z,24.10
2022-10-01T16:42:22.932Z,24.00
2022-10-01T16:44:51.062Z,23.90
2022-10-01T16:47:17.764Z,23.80
2022-10-01T16:49:52.621Z,23.60
2022-10-01T16:52:19.186Z,23.40
2022-10-01T16:54:47.360Z,23.30
2022-10-01T16:57:16.538Z,23.20
2022-10-01T16:59:43.417Z,23.00
2022-10-01T17:02:13.419Z,22.90
2022-10-01T17:04:40.594Z,22.90
2022-10-01T17:07:07.376Z,22.80
2022-10-01T17:09:33.972Z,22.50
2022-10-01T17:12:01.750Z,22.30
2022-10-01T17:14:28.560Z,22.10
2022-10-01T17:16:55.337Z,22.00
2022-10-01T17:19:22.329Z,21.80
2022-10-01T17:21:48.896Z,21.60
2022-10-01T17:24:15.613Z,21.40
2022-10-01T17:26:45.188Z,21.20
2022-10-01T17:29:12.254Z,21.10
2022-10-01T17:31:40.760Z,21.00
2022-10-01T17:34:08.293Z,20.90
2022-10-01T17:36:35.406Z,20.90
2022-10-01T17:39:02.576Z,20.80
2022-10-01T17:41:29.467Z,20.80
2022-10-01T17:43:57.377Z,20.70
2022-10-01T17:46:24.244Z,20.60
2022-10-01T17:48:50.963Z,20.60
2022-10-01T17:51:17.719Z,20.60
2022-10-01T17:53:44.384Z,20.50
2022-10-01T17:56:15.972Z,20.50
2022-10-01T17:58:45.291Z,20.50
2022-10-01T18:01:16.157Z,20.40
2022-10-01T18:03:42.916Z,20.40
2022-10-01T18:06:13.474Z,20.40
2022-10-01T18:08:54.539Z,20.40
2022-10-01T18:11:22.980Z,20.40
2022-10-01T18:13:50.933Z,20.40
2022-10-01T18:16:19.355Z,20.30
2022-10-01T18:21:33.341Z,20.20
2022-10-01T18:24:04.264Z,20.20
2022-10-01T18:26:31.888Z,20.20
2022-10-01T18:28:58.520Z,20.20
2022-10-01T18:31:27.069Z,20.30
2022-10-01T18:34:00.139Z,20.20
2022-10-01T18:36:41.947Z,20.20
2022-10-01T18:39:26.170Z,20.20
2022-10-01T18:41:53.160Z,20.20
2022-10-01T18:44:21.186Z,20.10
2022-10-01T18:47:13.886Z,20.10
2022-10-01T18:49:50.113Z,20.00
2022-10-01T18:52:38.460Z,20.00
2022-10-01T18:55:30.206Z,20.00
2022-10-01T18:58:37.063Z,20.00
2022-10-01T19:01:22.537Z,19.90
2022-10-01T19:04:08.643Z,19.90
2022-10-01T19:06:59.708Z,19.90
2022-10-01T19:09:48.781Z,19.80
2022-10-01T19:12:40.352Z,19.80
2022-10-01T19:15:31.551Z,19.80
2022-10-01T19:18:11.695Z,19.80
2022-10-01T19:20:58.419Z,19.80
2022-10-01T19:23:28.287Z,19.80
2022-10-01T19:26:05.539Z,19.80
2022-10-01T19:28:54.715Z,19.90
2022-10-01T19:31:52.051Z,20.00
2022-10-01T19:34:46.814Z,19.90
2022-10-01T19:37:38.200Z,20.00
2022-10-01T19:40:15.126Z,20.00
2022-10-01T19:42:48.199Z,20.00
2022-10-01T19:45:32.920Z,20.10
2022-10-01T19:48:26.779Z,20.10
2022-10-01T19:51:02.371Z,20.20
2022-10-01T19:53:39.629Z,20.10
2022-10-01T19:56:10.961Z,20.10
2022-10-01T19:58:37.540Z,20.00
2022-10-01T20:01:04.450Z,20.00
2022-10-01T20:03:40.005Z,20.00
2022-10-01T20:06:19.757Z,20.00
2022-10-01T20:08:55.739Z,20.00
2022-10-01T20:11:38.706Z,19.90
2022-10-01T20:14:48.760Z,19.90
2022-10-01T20:17:33.166Z,19.80
2022-10-01T20:20:13.838Z,19.70
2022-10-01T20:23:04.551Z,19.80
2022-10-01T20:25:42.528Z,19.80
2022-10-01T20:28:30.164Z,19.70
2022-10-01T20:31:19.938Z,19.70
2022-10-01T20:34:01.924Z,19.60
2022-10-01T20:37:11.086Z,19.60
2022-10-01T20:39:50.378Z,19.60
2022-10-01T20:42:33.585Z,19.60
2022-10-01T20:45:00.958Z,19.60
2022-10-01T20:47:44.110Z,19.50
2022-10-01T20:50:20.198Z,19.50
2022-10-01T20:52:52.609Z,19.40
2022-10-01T20:55:28.765Z,19.40
2022-10-01T20:58:03.422Z,19.40
2022-10-01T21:00:31.018Z,19.30
2022-10-01T21:03:19.281Z,19.30
2022-10-01T21:05:57.329Z,19.30
2022-10-01T21:08:32.541Z,19.30
2022-10-01T21:11:03.692Z,19.40
2022-10-01T21:13:30.383Z,19.40
2022-10-01T21:16:20.979Z,19.40
2022-10-01T21:19:19.756Z,19.40
2022-10-01T21:22:05.105Z,19.40
2022-10-01T21:24:44.141Z,19.30
2022-10-01T21:27:48.370Z,19.30
2022-10-01T21:30:17.964Z,19.20
2022-10-01T21:33:03.808Z,19.30
2022-10-01T21:35:44.302Z,19.20
2022-10-01T21:38:36.684Z,19.20
2022-10-01T21:41:19.759Z,19.30
2022-10-01T21:44:16.554Z,19.20
2022-10-01T21:46:54.598Z,19.20
2022-10-01T21:49:44.705Z,19.20
2022-10-01T21:52:30.183Z,19.20
2022-10-01T21:55:17.186Z,19.10
2022-10-01T21:58:08.139Z,19.20
2022-10-01T22:00:35.101Z,19.20
2022-10-01T22:03:07.538Z,19.20
2022-10-01T22:05:41.237Z,19.20
2022-10-01T22:08:25.388Z,19.20
2022-10-01T22:10:57.731Z,19.20
2022-10-01T22:13:28.797Z,19.30
2022-10-01T22:16:02.124Z,19.30
2022-10-01T22:18:45.387Z,19.30
2022-10-01T22:21:30.798Z,19.30
2022-10-01T22:24:08.473Z,19.30
2022-10-01T22:26:40.688Z,19.40
2022-10-01T22:29:10.398Z,19.50
2022-10-01T22:31:38.923Z,19.50
2022-10-01T22:34:11.742Z,19.50
2022-10-01T22:36:52.864Z,19.50
2022-10-01T22:39:24.065Z,19.60
2022-10-01T22:41:57.157Z,19.60
2022-10-01T22:44:24.163Z,19.70
2022-10-01T22:47:15.884Z,19.70
2022-10-01T22:50:01.387Z,19.70
2022-10-01T22:52:58.039Z,19.60
2022-10-01T22:55:43.092Z,19.50
2022-10-01T22:58:27.658Z,19.50
2022-10-01T23:01:29.228Z,19.60
2022-10-01T23:04:33.789Z,19.60
2022-10-01T23:07:23.737Z,19.60
2022-10-01T23:09:55.624Z,19.60
2022-10-01T23:12:25.927Z,19.70
2022-10-01T23:15:11.068Z,19.80
2022-10-01T23:17:54.779Z,19.80
2022-10-01T23:20:30.080Z,19.80
2022-10-01T23:23:23.640Z,19.90
2022-10-01T23:26:14.873Z,19.90
2022-10-01T23:28:45.317Z,19.90
2022-10-01T23:31:33.247Z,19.90
2022-10-01T23:34:15.127Z,19.80
2022-10-01T23:37:08.743Z,19.70
2022-10-01T23:39:50.844Z,19.80
2022-10-01T23:42:23.000Z,19.60
2022-10-01T23:45:28.342Z,19.50
2022-10-01T23:48:13.646Z,19.50
2022-10-01T23:50:47.964Z,19.50
2022-10-01T23:53:25.348Z,19.50
2022-10-01T23:56:21.009Z,19.50
2022-10-01T23:58:54.914Z,19.40
